createdAt,value
2022-09-27T00:00:01.231Z,9.50
2022-09-27T00:02:29.201Z,9.43
2022-09-27T00:04:58.476Z,9.38
2022-09-27T00:07:26.345Z,9.32
2022-09-27T00:09:54.132Z,9.33
2022-09-27T00:12:21.907Z,9.32
2022-09-27T00:14:51.079Z,9.29
2022-09-27T00:17:18.855Z,9.22
2022-09-27T00:19:46.637Z,9.24
2022-09-27T00:22:14.416Z,9.21
2022-09-27T00:24:42.268Z,9.20
2022-09-27T00:27:10.071Z,9.13
2022-09-27T00:29:38.121Z,9.13
2022-09-27T00:32:07.319Z,9.09
2022-09-27T00:34:35.177Z,9.11
2022-09-27T00:37:02.971Z,9.03
2022-09-27T00:39:30.854Z,8.97
2022-09-27T00:41:58.641Z,8.97
2022-09-27T00:45:02.158Z,8.89
2022-09-27T00:47:51.825Z,8.86
2022-09-27T00:50:27.487Z,8.84
2022-09-27T00:53:05.364Z,8.86
2022-09-27T00:55:37.495Z,8.92
2022-09-27T00:58:06.353Z,8.96
2022-09-27T01:00:34.712Z,9.04
2022-09-27T01:03:08.378Z,9.05
2022-09-27T01:05:36.560Z,9.05
2022-09-27T01:08:05.354Z,9.04
2022-09-27T01:10:38.549Z,9.03
2022-09-27T01:13:13.919Z,9.00
2022-09-27T01:15:51.194Z,8.91
2022-09-27T01:18:33.399Z,8.88
2022-09-27T01:21:35.420Z,8.95
2022-09-27T01:24:28.251Z,8.92
2022-09-27T01:27:19.533Z,9.00
2022-09-27T01:30:04.080Z,8.95
2022-09-27T01:32:39.896Z,8.92
2022-09-27T01:35:14.688Z,8.97
2022-09-27T01:37:52.345Z,8.88
2022-09-27T01:40:30.000Z,8.93
2022-09-27T01:43:07.782Z,8.95
2022-09-27T01:45:40.097Z,9.00
2022-09-27T01:48:14.823Z,9.03
2022-09-27T01:50:47.107Z,9.03
2022-09-27T01:53:20.701Z,8.97
2022-09-27T01:55:50.695Z,9.03
2022-09-27T01:58:22.039Z,9.05
2022-09-27T02:00:53.960Z,9.10
2022-09-27T02:03:26.248Z,9.14
2022-09-27T02:05:57.731Z,9.14
2022-09-27T02:08:32.787Z,9.09
2022-09-27T02:11:05.307Z,9.06
2022-09-27T02:13:41.534Z,9.00
2022-09-27T02:16:23.772Z,8.99
2022-09-27T02:19:02.377Z,8.99
2022-09-27T02:21:38.959Z,8.99
2022-09-27T02:24:11.166Z,8.99
2022-09-27T02:26:42.725Z,8.99
2022-09-27T02:29:14.840Z,8.99
2022-09-27T02:31:42.738Z,8.98
2022-09-27T02:34:17.591Z,8.98
2022-09-27T02:36:45.582Z,8.97
2022-09-27T02:39:13.500Z,8.94
2022-09-27T02:41:41.265Z,8.97
2022-09-27T02:44:13.238Z,8.97
2022-09-27T02:47:01.017Z,8.97
2022-09-27T02:49:45.399Z,8.99
2022-09-27T02:52:24.862Z,9.02
2022-09-27T02:55:03.231Z,9.01
2022-09-27T02:57:39.686Z,8.99
2022-09-27T03:00:11.013Z,9.00
2022-09-27T03:02:52.834Z,8.98
2022-09-27T03:05:26.384Z,8.97
2022-09-27T03:07:54.288Z,8.98
2022-09-27T03:10:26.777Z,8.95
2022-09-27T03:12:54.719Z,8.99
2022-09-27T03:15:22.492Z,8.96
2022-09-27T03:17:50.243Z,8.94
2022-09-27T03:20:18.166Z,8.90
2022-09-27T03:22:47.288Z,8.92
2022-09-27T03:25:15.254Z,8.94
2022-09-27T03:27:43.065Z,8.91
2022-09-27T03:30:13.400Z,8.89
2022-09-27T03:32:44.178Z,8.92
2022-09-27T03:35:12.368Z,8.89
2022-09-27T03:37:41.058Z,8.88
2022-09-27T03:40:11.573Z,8.88
2022-09-27T03:42:39.817Z,8.90
2022-09-27T03:45:08.618Z,8.85
2022-09-27T03:47:36.336Z,8.84
2022-09-27T03:50:04.156Z,8.84
2022-09-27T03:52:32.273Z,8.85
2022-09-27T03:55:02.364Z,8.82
2022-09-27T03:57:32.032Z,8.85
2022-09-27T04:00:00.462Z,8.86
2022-09-27T04:02:29.108Z,8.88
2022-09-27T04:04:56.966Z,8.85
2022-09-27T04:07:24.744Z,8.95
2022-09-27T04:09:52.545Z,8.94
2022-09-27T04:12:20.347Z,8.91
2022-09-27T04:14:49.516Z,8.94
2022-09-27T04:17:17.294Z,8.92
2022-09-27T04:19:45.085Z,8.96
2022-09-27T04:22:13.637Z,8.93
2022-09-27T04:24:41.409Z,8.93
2022-09-27T04:27:09.214Z,8.87
2022-09-27T04:29:37.200Z,8.88
2022-09-27T04:32:06.383Z,8.84
2022-09-27T04:34:51.727Z,8.82
2022-09-27T04:37:19.467Z,8.82
2022-09-27T04:39:49.098Z,8.81
2022-09-27T04:42:17.180Z,8.83
2022-09-27T04:44:45.136Z,8.75
2022-09-27T04:47:14.874Z,8.72
2022-09-27T04:49:42.678Z,8.72
2022-09-27T04:52:10.520Z,8.71
2022-09-27T04:54:38.279Z,8.75
2022-09-27T04:57:06.065Z,8.76
2022-09-27T04:59:33.889Z,8.76
2022-09-27T05:02:01.639Z,8.77
2022-09-27T05:04:30.767Z,8.77
2022-09-27T05:06:58.566Z,8.76
2022-09-27T05:09:26.355Z,8.76
2022-09-27T05:11:54.097Z,8.79
2022-09-27T05:14:21.892Z,8.82
2022-09-27T05:16:49.772Z,8.88
2022-09-27T05:19:17.768Z,8.89
2022-09-27T05:21:46.893Z,8.91
2022-09-27T05:24:14.663Z,8.97
2022-09-27T05:26:42.845Z,9.00
2022-09-27T05:29:10.726Z,9.04
2022-09-27T05:31:38.746Z,9.05
2022-09-27T05:34:11.943Z,9.04
2022-09-27T05:36:39.737Z,9.04
2022-09-27T05:39:09.016Z,9.05
2022-09-27T05:41:36.943Z,9.03
2022-09-27T05:44:05.843Z,9.01
2022-09-27T05:46:33.671Z,9.04
2022-09-27T05:49:01.681Z,9.06
2022-09-27T05:51:29.503Z,9.06
2022-09-27T05:53:57.535Z,9.08
2022-09-27T05:56:26.739Z,9.07
2022-09-27T05:58:54.523Z,9.07
2022-09-27T06:01:22.371Z,9.08
2022-09-27T06:03:51.401Z,9.07
2022-09-27T06:06:19.276Z,9.08
2022-09-27T06:08:47.076Z,9.12
2022-09-27T06:11:14.917Z,9.14
2022-09-27T06:13:44.170Z,9.18
2022-09-27T06:16:13.128Z,9.21
2022-09-27T06:18:41.025Z,9.22
2022-09-27T06:21:08.783Z,9.20
2022-09-27T06:23:36.623Z,9.18
2022-09-27T06:26:07.934Z,9.15
2022-09-27T06:28:36.072Z,9.15
2022-09-27T06:31:08.262Z,9.16
2022-09-27T06:33:36.705Z,9.16
2022-09-27T06:36:06.587Z,9.21
2022-09-27T06:38:34.506Z,9.24
2022-09-27T06:41:03.741Z,9.23
2022-09-27T06:43:31.849Z,9.18
2022-09-27T06:46:04.685Z,9.23
2022-09-27T06:48:37.515Z,9.39
2022-09-27T06:51:05.718Z,9.64
2022-09-27T06:53:33.597Z,9.66
2022-09-27T06:56:02.241Z,9.59
2022-09-27T06:58:47.922Z,9.54
2022-09-27T07:01:17.617Z,9.52
2022-09-27T07:03:51.330Z,9.53
2022-09-27T07:06:22.748Z,9.61
2022-09-27T07:08:54.091Z,9.70
2022-09-27T07:11:23.463Z,9.81
2022-09-27T07:13:52.381Z,9.94
2022-09-27T07:16:20.348Z,10.00
2022-09-27T07:18:51.218Z,10.05
2022-09-27T07:21:19.323Z,10.06
2022-09-27T07:23:47.520Z,10.11
2022-09-27T07:26:15.391Z,10.10
2022-09-27T07:28:43.413Z,10.23
2022-09-27T07:31:11.428Z,10.19
2022-09-27T07:33:43.149Z,10.10
2022-09-27T07:36:14.022Z,10.21
2022-09-27T07:38:41.937Z,10.26
2022-09-27T07:41:12.502Z,10.36
2022-09-27T07:43:40.418Z,10.49
2022-09-27T07:46:08.321Z,10.66
2022-09-27T07:48:36.327Z,10.73
2022-09-27T07:51:04.351Z,10.77
2022-09-27T07:53:33.601Z,10.78
2022-09-27T07:56:01.438Z,10.59
2022-09-27T07:58:30.588Z,10.54
2022-09-27T08:01:00.579Z,10.75
2022-09-27T08:03:28.580Z,10.70
2022-09-27T08:05:56.406Z,10.87
2022-09-27T08:08:24.518Z,11.07
2022-09-27T08:10:54.610Z,11.41
2022-09-27T08:13:22.498Z,11.32
2022-09-27T08:15:52.439Z,11.09
2022-09-27T08:18:21.947Z,10.89
2022-09-27T08:20:49.795Z,10.12
2022-09-27T08:23:17.852Z,9.28
2022-09-27T08:25:45.884Z,8.76
2022-09-27T08:28:15.165Z,8.49
2022-09-27T08:30:43.067Z,8.32
2022-09-27T08:33:11.170Z,8.25
2022-09-27T08:35:39.770Z,8.20
2022-09-27T08:38:08.016Z,8.28
2022-09-27T08:40:50.477Z,8.34
2022-09-27T08:43:29.073Z,8.31
2022-09-27T08:46:12.253Z,8.35
2022-09-27T08:48:41.128Z,8.46
2022-09-27T08:51:14.854Z,8.53
2022-09-27T08:53:49.282Z,8.46
2022-09-27T08:56:21.262Z,8.61
2022-09-27T08:58:54.764Z,8.80
2022-09-27T09:01:27.862Z,9.08
2022-09-27T09:03:59.369Z,9.65
2022-09-27T09:06:30.202Z,9.85
2022-09-27T09:09:10.299Z,9.56
2022-09-27T09:12:13.479Z,9.12
2022-09-27T09:14:58.238Z,9.22
2022-09-27T09:17:39.285Z,9.33
2022-09-27T09:20:30.027Z,9.58
2022-09-27T09:23:23.837Z,9.73
2022-09-27T09:26:01.882Z,9.92
2022-09-27T09:28:46.706Z,10.36
2022-09-27T09:31:25.296Z,10.41
2022-09-27T09:33:59.295Z,10.45
2022-09-27T09:36:33.805Z,10.73
2022-09-27T09:39:05.559Z,11.04
2022-09-27T09:41:40.707Z,10.96
2022-09-27T09:44:19.314Z,10.61
2022-09-27T09:46:52.537Z,10.22
2022-09-27T09:49:25.499Z,9.95
2022-09-27T09:51:58.276Z,9.84
2022-09-27T09:54:31.579Z,9.74
2022-09-27T09:57:06.320Z,9.77
2022-09-27T09:59:39.357Z,9.85
2022-09-27T10:02:22.974Z,9.87
2022-09-27T10:04:51.076Z,9.93
2022-09-27T10:07:23.260Z,10.00
2022-09-27T10:09:52.012Z,10.01
2022-09-27T10:12:20.081Z,9.84
2022-09-27T10:14:50.476Z,9.64
2022-09-27T10:17:23.202Z,9.39
2022-09-27T10:19:52.689Z,9.25
2022-09-27T10:22:27.766Z,9.00
2022-09-27T10:24:58.586Z,9.03
2022-09-27T10:27:27.470Z,8.81
2022-09-27T10:30:00.193Z,8.84
2022-09-27T10:32:33.320Z,8.91
2022-09-27T10:35:24.065Z,9.28
2022-09-27T10:37:52.723Z,9.53
2022-09-27T10:40:29.560Z,9.36
2022-09-27T10:42:57.601Z,9.38
2022-09-27T10:45:31.327Z,9.46
2022-09-27T10:48:02.461Z,9.40
2022-09-27T10:50:52.958Z,9.34
2022-09-27T10:53:24.130Z,9.30
2022-09-27T10:55:53.570Z,9.46
2022-09-27T10:58:27.484Z,9.69
2022-09-27T11:00:57.925Z,10.31
2022-09-27T11:03:29.072Z,10.97
2022-09-27T11:05:59.790Z,11.33
2022-09-27T11:08:33.004Z,11.38
2022-09-27T11:11:17.390Z,11.56
2022-09-27T11:14:00.120Z,12.12
2022-09-27T11:16:43.088Z,12.44
2022-09-27T11:19:27.991Z,12.07
2022-09-27T11:22:02.806Z,11.39
2022-09-27T11:24:48.631Z,10.48
2022-09-27T11:27:29.688Z,10.27
2022-09-27T11:30:09.710Z,10.67
2022-09-27T11:32:55.166Z,10.74
2022-09-27T11:35:37.651Z,10.37
2022-09-27T11:38:40.852Z,10.22
2022-09-27T11:41:24.155Z,9.88
2022-09-27T11:44:19.758Z,9.78
2022-09-27T11:46:58.508Z,9.83
2022-09-27T11:49:46.989Z,9.73
2022-09-27T11:52:32.137Z,9.98
2022-09-27T11:55:15.677Z,10.25
2022-09-27T11:57:46.817Z,10.26
2022-09-27T12:00:23.983Z,10.29
2022-09-27T12:03:36.560Z,9.95
2022-09-27T12:06:10.890Z,9.66
2022-09-27T12:08:54.882Z,9.50
2022-09-27T12:11:28.082Z,9.69
2022-09-27T12:14:00.703Z,9.69
2022-09-27T12:16:31.469Z,9.77
2022-09-27T12:19:02.048Z,10.03
2022-09-27T12:21:32.685Z,10.09
2022-09-27T12:24:03.524Z,10.44
2022-09-27T12:26:38.632Z,11.26
2022-09-27T12:29:14.052Z,11.91
2022-09-27T12:31:44.777Z,12.29
2022-09-27T12:34:20.074Z,12.52
2022-09-27T12:36:50.522Z,12.66
2022-09-27T12:39:25.145Z,12.40
2022-09-27T12:42:02.037Z,12.45
2022-09-27T12:44:38.671Z,12.64
2022-09-27T12:47:14.911Z,13.00
2022-09-27T12:49:52.010Z,13.31
2022-09-27T12:52:25.637Z,13.40
2022-09-27T12:55:20.067Z,12.97
2022-09-27T12:57:58.386Z,12.90
2022-09-27T13:00:28.097Z,13.12
2022-09-27T13:03:26.337Z,13.05
2022-09-27T13:06:36.097Z,12.95
2022-09-27T13:09:37.640Z,12.45
2022-09-27T13:12:11.635Z,12.24
2022-09-27T13:14:47.260Z,12.08
2022-09-27T13:17:48.378Z,11.99
2022-09-27T13:20:49.416Z,11.92
2022-09-27T13:23:57.958Z,12.32
2022-09-27T13:26:45.015Z,12.65
2022-09-27T13:29:34.500Z,12.57
2022-09-27T13:32:12.482Z,12.54
2022-09-27T13:34:43.203Z,12.45
2022-09-27T13:37:38.477Z,12.37
2022-09-27T13:40:24.184Z,12.44
2022-09-27T13:43:18.180Z,12.43
2022-09-27T13:45:55.121Z,12.57
2022-09-27T13:48:28.267Z,12.32
2022-09-27T13:51:02.482Z,12.17
2022-09-27T13:53:35.359Z,11.89
2022-09-27T13:56:04.021Z,11.72
2022-09-27T13:58:38.078Z,11.51
2022-09-27T14:01:18.145Z,11.28
2022-09-27T14:03:59.473Z,10.84
2022-09-27T14:06:32.576Z,10.78
2022-09-27T14:09:05.674Z,10.68
2022-09-27T14:11:37.926Z,10.44
2022-09-27T14:14:08.620Z,10.34
2022-09-27T14:16:43.407Z,10.63
2022-09-27T14:19:17.715Z,10.56
2022-09-27T14:21:47.538Z,10.70
2022-09-27T14:24:24.018Z,10.92
2022-09-27T14:27:04.126Z,10.63
2022-09-27T14:29:34.136Z,10.98
2022-09-27T14:32:09.393Z,11.05
2022-09-27T14:34:37.166Z,11.14
2022-09-27T14:37:22.418Z,11.19
2022-09-27T14:39:55.729Z,11.13
2022-09-27T14:42:26.520Z,11.01
2022-09-27T14:45:04.196Z,11.17
2022-09-27T14:47:34.169Z,11.28
2022-09-27T14:50:05.696Z,11.39
2022-09-27T14:52:36.481Z,11.18
2022-09-27T14:55:07.944Z,10.97
2022-09-27T14:57:37.376Z,10.86
2022-09-27T15:00:18.360Z,10.83
2022-09-27T15:02:48.868Z,10.75
2022-09-27T15:05:19.789Z,10.53
2022-09-27T15:07:49.689Z,10.65
2022-09-27T15:10:19.308Z,10.69
2022-09-27T15:12:49.241Z,10.66
2022-09-27T15:15:22.930Z,10.71
2022-09-27T15:17:52.016Z,10.77
2022-09-27T15:20:24.570Z,10.71
2022-09-27T15:22:52.970Z,10.71
2022-09-27T15:25:32.130Z,10.63
2022-09-27T15:28:02.896Z,10.63
2022-09-27T15:30:36.354Z,10.64
2022-09-27T15:33:06.696Z,10.80
2022-09-27T15:35:36.871Z,10.94
2022-09-27T15:38:24.833Z,11.15
2022-09-27T15:41:08.129Z,11.34
2022-09-27T15:43:45.535Z,11.55
2022-09-27T15:46:36.101Z,11.75
2022-09-27T15:49:30.827Z,11.68
2022-09-27T15:52:00.158Z,11.37
2022-09-27T15:54:30.227Z,11.12
2022-09-27T15:57:04.283Z,10.84
2022-09-27T15:59:34.948Z,10.72
2022-09-27T16:02:08.139Z,10.59
2022-09-27T16:04:37.987Z,10.60
2022-09-27T16:07:09.871Z,10.60
2022-09-27T16:09:38.754Z,10.65
2022-09-27T16:12:06.533Z,10.74
2022-09-27T16:14:34.349Z,10.80
2022-09-27T16:17:02.008Z,10.79
2022-09-27T16:19:29.694Z,10.84
2022-09-27T16:22:03.299Z,10.69
2022-09-27T16:24:32.044Z,10.54
2022-09-27T16:27:00.172Z,10.42
2022-09-27T16:29:27.933Z,10.35
2022-09-27T16:31:55.585Z,10.33
2022-09-27T16:34:23.382Z,10.36
2022-09-27T16:36:51.228Z,10.39
2022-09-27T16:39:20.264Z,10.35
2022-09-27T16:41:48.277Z,10.29
2022-09-27T16:44:17.694Z,10.27
2022-09-27T16:46:47.219Z,10.20
2022-09-27T16:49:28.880Z,10.18
2022-09-27T16:52:02.413Z,10.13
2022-09-27T16:54:31.679Z,10.09
2022-09-27T16:57:00.442Z,10.06
2022-09-27T16:59:28.539Z,10.04
2022-09-27T17:01:57.883Z,10.01
2022-09-27T17:04:27.476Z,10.00
2022-09-27T17:06:55.755Z,9.94
2022-09-27T17:09:23.810Z,9.87
2022-09-27T17:11:52.935Z,9.72
2022-09-27T17:14:20.900Z,9.60
2022-09-27T17:16:49.560Z,9.49
2022-09-27T17:19:18.886Z,9.38
2022-09-27T17:21:46.923Z,9.32
2022-09-27T17:24:14.775Z,9.26
2022-09-27T17:26:43.081Z,9.21
2022-09-27T17:29:13.269Z,9.12
2022-09-27T17:31:42.371Z,8.97
2022-09-27T17:34:12.807Z,8.88
2022-09-27T17:36:42.325Z,8.73
2022-09-27T17:39:13.409Z,8.72
2022-09-27T17:41:41.063Z,8.66
2022-09-27T17:44:12.507Z,8.65
2022-09-27T17:46:42.790Z,8.67
2022-09-27T17:49:28.890Z,8.65
2022-09-27T17:51:56.633Z,8.63
2022-09-27T17:54:27.815Z,8.66
2022-09-27T17:56:57.389Z,8.64
2022-09-27T17:59:25.985Z,8.67
2022-09-27T18:01:55.484Z,8.66
2022-09-27T18:04:23.375Z,8.63
2022-09-27T18:06:51.196Z,8.68
2022-09-27T18:09:19.699Z,8.69
2022-09-27T18:11:48.264Z,8.70
2022-09-27T18:14:16.125Z,8.73
2022-09-27T18:16:44.196Z,8.73
2022-09-27T18:19:16.061Z,8.72
2022-09-27T18:21:43.835Z,8.71
2022-09-27T18:24:11.966Z,8.68
2022-09-27T18:26:40.595Z,8.69
2022-09-27T18:29:10.862Z,8.62
2022-09-27T18:31:39.770Z,8.64
2022-09-27T18:34:07.984Z,8.65
2022-09-27T18:36:37.583Z,8.67
2022-09-27T18:39:09.252Z,8.71
2022-09-27T18:41:37.331Z,8.71
2022-09-27T18:44:06.708Z,8.75
2022-09-27T18:46:37.247Z,8.78
2022-09-27T18:49:08.059Z,8.83
2022-09-27T18:51:39.957Z,8.86
2022-09-27T18:54:10.116Z,8.84
2022-09-27T18:56:39.560Z,8.84
2022-09-27T18:59:09.321Z,8.82
2022-09-27T19:01:39.523Z,8.82
2022-09-27T19:04:08.140Z,8.76
2022-09-27T19:06:38.640Z,8.77
2022-09-27T19:09:07.689Z,8.74
2022-09-27T19:11:36.012Z,8.73
2022-09-27T19:14:04.220Z,8.72
2022-09-27T19:16:31.988Z,8.67
2022-09-27T19:18:59.894Z,8.57
2022-09-27T19:21:29.815Z,8.54
2022-09-27T19:23:59.105Z,8.51
2022-09-27T19:26:28.221Z,8.49
2022-09-27T19:28:56.513Z,8.49
2022-09-27T19:31:26.279Z,8.49
2022-09-27T19:33:59.647Z,8.50
2022-09-27T19:36:28.101Z,-144.85
2022-09-27T19:38:58.541Z,8.49
2022-09-27T19:41:28.371Z,8.56
2022-09-27T19:43:57.523Z,8.58
2022-09-27T19:46:26.632Z,8.60
2022-09-27T19:48:55.233Z,8.63
2022-09-27T19:51:25.119Z,8.67
2022-09-27T19:53:54.131Z,8.66
2022-09-27T19:56:22.612Z,8.68
2022-09-27T19:58:52.295Z,8.68
2022-09-27T20:01:22.628Z,8.72
2022-09-27T20:03:52.330Z,8.73
2022-09-27T20:06:21.703Z,8.67
2022-09-27T20:08:50.106Z,8.72
2022-09-27T20:11:19.416Z,8.66
2022-09-27T20:13:48.049Z,8.63
2022-09-27T20:16:19.552Z,8.65
2022-09-27T20:18:49.649Z,8.65
2022-09-27T20:21:19.467Z,8.68
2022-09-27T20:23:49.948Z,8.67
2022-09-27T20:26:20.070Z,8.65
2022-09-27T20:28:49.569Z,8.61
2022-09-27T20:31:20.045Z,8.57
2022-09-27T20:33:50.639Z,8.59
2022-09-27T20:36:20.430Z,8.55
2022-09-27T20:38:50.104Z,8.52
2022-09-27T20:41:20.207Z,8.47
2022-09-27T20:43:48.842Z,8.44
2022-09-27T20:46:19.147Z,8.45
2022-09-27T20:48:51.154Z,8.44
2022-09-27T20:51:19.539Z,8.41
2022-09-27T20:53:49.110Z,8.43
2022-09-27T20:56:18.431Z,8.42
2022-09-27T20:58:46.833Z,8.38
2022-09-27T21:01:15.339Z,8.37
2022-09-27T21:03:44.598Z,8.40
2022-09-27T21:06:13.915Z,8.37
2022-09-27T21:08:41.943Z,8.26
2022-09-27T21:11:11.696Z,8.26
2022-09-27T21:13:40.717Z,8.20
2022-09-27T21:16:10.521Z,8.15
2022-09-27T21:18:38.598Z,-144.85
2022-09-27T21:21:09.775Z,8.13
2022-09-27T21:23:44.121Z,8.13
2022-09-27T21:26:14.783Z,8.11
2022-09-27T21:28:44.802Z,-144.85
2022-09-27T21:31:16.566Z,-144.85
2022-09-27T21:33:48.847Z,-144.85
2022-09-27T21:36:18.225Z,-144.85
2022-09-27T21:38:45.948Z,-144.85
2022-09-27T21:41:16.016Z,-144.85
2022-09-27T21:43:45.227Z,-144.85
2022-09-27T21:46:14.773Z,-144.85
2022-09-27T21:48:44.283Z,-144.85
2022-09-27T21:51:13.829Z,-144.85
2022-09-27T21:53:45.081Z,-144.85
2022-09-27T21:56:13.223Z,-144.85
2022-09-27T21:58:42.264Z,-144.85
2022-09-27T22:01:12.600Z,-144.85
2022-09-27T22:03:42.678Z,-144.85
2022-09-27T22:06:11.905Z,-144.85
2022-09-27T22:08:39.734Z,-144.85
2022-09-27T22:11:09.942Z,-144.85
2022-09-27T22:13:37.685Z,-144.85
2022-09-27T22:16:07.129Z,-144.85
2022-09-27T22:18:37.377Z,-144.85
2022-09-27T22:21:06.940Z,-144.85
2022-09-27T22:23:34.999Z,-144.85
2022-09-27T22:26:13.889Z,-144.85
2022-09-27T22:28:41.667Z,-144.85
2022-09-27T22:31:11.514Z,-144.85
2022-09-27T22:33:39.623Z,-144.85
2022-09-27T22:36:07.817Z,-144.85
2022-09-27T22:38:35.808Z,-144.85
2022-09-27T22:41:04.296Z,-144.85
2022-09-27T22:43:33.490Z,-144.85
2022-09-27T22:46:01.432Z,-144.85
2022-09-27T22:48:30.708Z,-144.85
2022-09-27T22:50:59.659Z,-144.85
2022-09-27T22:53:29.534Z,-144.85
2022-09-27T22:56:03.113Z,-144.85
2022-09-27T22:58:33.709Z,-144.85
2022-09-27T23:05:39.829Z,7.87
2022-09-27T23:08:07.610Z,7.90
2022-09-27T23:10:36.005Z,7.93
2022-09-27T23:13:03.744Z,7.96
2022-09-27T23:15:32.868Z,7.97
2022-09-27T23:18:00.960Z,7.97
2022-09-27T23:20:29.710Z,8.00
2022-09-27T23:22:59.183Z,8.04
2022-09-27T23:25:27.115Z,8.06
2022-09-27T23:27:54.956Z,8.09
2022-09-27T23:30:28.938Z,8.10
2022-09-27T23:32:56.731Z,8.09
2022-09-27T23:35:26.648Z,8.11
2022-09-27T23:37:57.746Z,8.08
2022-09-27T23:40:26.887Z,8.10
2022-09-27T23:42:54.588Z,8.07
2022-09-27T23:45:22.255Z,8.11
2022-09-27T23:47:49.957Z,8.11
2022-09-27T23:50:17.806Z,8.12
2022-09-27T23:52:45.466Z,8.06
2022-09-27T23:55:13.174Z,8.04
2022-09-27T23:57:42.222Z,8.06
